Time;durP1;ratioP1;P1;durP2;ratioP2;P2;SDS_P1;SDS_P2;PMS_P1;PMS_P2;Temp;Humidity;BMP_temperature;BMP_pressure;BME280_temperature;BME280_humidity;BME280_pressure;Samples;Min_cycle;Max_cycle;Signal;HPM_P1;HPM_P2
2022/06/25 00:01:28;;;;;;;9.67;7.53;;;;;;;19.86;86.56;94715.06;5075536;28;20448;-77
2022/06/25 00:03:55;;;;;;;13.63;6.87;;;;;;;19.97;86.13;94714.56;5075191;28;20456;-77
2022/06/25 00:06:22;;;;;;;8.70;7.20;;;;;;;20.01;85.41;94715.81;5075597;28;20441;-77
2022/06/25 00:08:50;;;;;;;6.63;6.13;;;;;;;20.00;84.31;94703.53;5075177;28;20788;-78
2022/06/25 00:14:05;;;;;;;7.80;6.80;;;;;;;19.95;82.78;94698.78;5075101;28;20844;-77
2022/06/25 00:16:34;;;;;;;8.60;7.23;;;;;;;19.93;82.72;94692.78;5075033;28;20441;-77
2022/06/25 00:19:01;;;;;;;6.57;6.00;;;;;;;19.96;82.50;94691.59;5074850;28;20450;-77
2022/06/25 00:21:28;;;;;;;6.90;6.30;;;;;;;19.91;82.16;94684.16;5074846;28;20800;-77
2022/06/25 00:23:55;;;;;;;8.47;7.10;;;;;;;19.85;82.73;94679.63;5056289;28;20425;-77
2022/06/25 00:26:22;;;;;;;6.63;6.10;;;;;;;19.75;82.68;94673.81;5074291;28;20446;-78
2022/06/25 00:28:48;;;;;;;9.13;6.40;;;;;;;19.70;83.13;94673.56;5075050;28;20441;-78
2022/06/25 00:31:15;;;;;;;7.80;7.10;;;;;;;19.52;83.89;94679.28;5039420;28;20434;-78
2022/06/25 00:33:44;;;;;;;6.33;5.73;;;;;;;19.46;84.25;94669.41;5074623;28;20477;-78
2022/06/25 00:36:10;;;;;;;9.63;6.73;;;;;;;19.40;84.46;94663.00;5055851;28;20441;-77
2022/06/25 00:38:37;;;;;;;7.33;6.73;;;;;;;19.45;84.58;94665.09;5074897;28;20788;-77
2022/06/25 00:41:04;;;;;;;6.67;6.07;;;;;;;19.45;84.61;94667.75;5074709;28;20517;-77
2022/06/25 00:43:32;;;;;;;8.73;7.83;;;;;;;19.45;84.63;94657.09;5074534;28;20453;-77
2022/06/25 00:45:59;;;;;;;8.60;7.10;;;;;;;19.43;84.73;94656.47;5074496;28;20445;-77
2022/06/25 00:48:25;;;;;;;7.70;7.10;;;;;;;19.46;84.62;94651.59;5039195;28;20510;-77
2022/06/25 00:50:58;;;;;;;7.63;6.90;;;;;;;19.48;84.46;94654.88;5074151;28;20455;-77
2022/06/25 00:53:31;;;;;;;6.70;6.10;;;;;;;19.45;84.28;94649.13;5074305;28;20437;-77
2022/06/25 00:56:00;;;;;;;6.73;6.23;;;;;;;19.41;84.08;94645.19;5074488;28;20448;-77
2022/06/25 00:58:32;;;;;;;7.07;6.40;;;;;;;19.36;84.11;94650.25;5074711;28;20444;-77
2022/06/25 01:00:59;;;;;;;8.40;7.73;;;;;;;19.34;84.06;94654.94;5074177;28;20441;-77
2022/06/25 01:03:26;;;;;;;6.70;6.10;;;;;;;19.36;83.98;94658.22;5074113;28;20472;-77
2022/06/25 01:05:55;;;;;;;12.03;7.20;;;;;;;19.29;84.25;94652.84;5074708;28;20611;-77
2022/06/25 01:08:23;;;;;;;6.50;5.90;;;;;;;19.31;84.59;94655.31;5074307;28;20445;-77
2022/06/25 01:10:50;;;;;;;7.17;6.67;;;;;;;19.26;84.44;94657.72;5039024;28;20441;-77
2022/06/25 01:13:18;;;;;;;9.27;6.63;;;;;;;19.23;84.76;94666.91;5074186;28;20445;-77
2022/06/25 01:15:45;;;;;;;7.50;6.80;;;;;;;19.31;84.03;94668.63;5074023;28;20562;-77
2022/06/25 01:18:12;;;;;;;6.97;6.33;;;;;;;19.37;84.10;94675.84;5074063;28;20447;-77
2022/06/25 01:20:39;;;;;;;7.80;7.10;;;;;;;19.40;84.53;94680.81;5073923;28;20441;-77
2022/06/25 01:23:07;;;;;;;8.87;6.23;;;;;;;19.43;84.30;94675.94;5073855;28;20449;-77
2022/06/25 01:25:35;;;;;;;6.67;6.03;;;;;;;19.43;84.12;94689.25;5073838;28;20792;-77
2022/06/25 01:28:02;;;;;;;7.03;6.33;;;;;;;19.46;84.24;94680.88;5073479;28;20955;-77
2022/06/25 01:30:29;;;;;;;10.90;6.60;;;;;;;19.48;83.74;94684.16;5073547;28;20468;-77
2022/06/25 01:32:56;;;;;;;6.97;6.27;;;;;;;19.52;83.34;94678.47;5073496;28;20437;-77
2022/06/25 01:35:23;;;;;;;7.47;6.60;;;;;;;19.52;83.47;94675.78;5073392;28;20993;-77
2022/06/25 01:37:50;;;;;;;6.97;6.27;;;;;;;19.57;83.24;94681.41;5038128;28;20437;-77
2022/06/25 01:40:18;;;;;;;8.57;7.60;;;;;;;19.59;83.26;94680.19;5073382;28;20479;-77
2022/06/25 01:43:01;;;;;;;8.60;6.80;;;;;;;19.60;83.01;94676.53;5073476;28;20520;-77
2022/06/25 01:45:28;;;;;;;12.23;6.60;;;;;;;19.63;83.38;94670.81;5038174;28;20447;-77
2022/06/25 01:47:55;;;;;;;8.17;7.47;;;;;;;19.68;83.42;94679.06;5073213;28;20437;-77
2022/06/25 01:50:22;;;;;;;7.20;6.57;;;;;;;19.65;83.08;94674.09;5073151;28;20452;-77
2022/06/25 01:52:49;;;;;;;7.00;6.40;;;;;;;19.55;83.21;94670.94;5073177;28;20472;-77
2022/06/25 01:55:19;;;;;;;6.70;6.20;;;;;;;19.53;82.41;94672.97;5072810;28;20815;-77
2022/06/25 01:57:46;;;;;;;5.87;5.47;;;;;;;19.44;82.67;94693.53;5073056;28;20959;-77
2022/06/25 02:00:16;;;;;;;8.47;7.10;;;;;;;19.45;82.61;94697.03;5073068;28;20445;-77
2022/06/25 02:02:43;;;;;;;8.23;5.97;;;;;;;19.39;82.57;94690.63;5073114;28;20468;-78
2022/06/25 02:05:11;;;;;;;7.03;6.33;;;;;;;19.42;82.24;94702.72;5073429;28;20445;-77
2022/06/25 02:07:38;;;;;;;7.43;6.73;;;;;;;19.35;82.64;94702.63;5072946;28;20441;-77
2022/06/25 02:10:06;;;;;;;8.20;6.83;;;;;;;19.36;82.77;94693.63;5037597;28;20490;-77
2022/06/25 02:12:34;;;;;;;8.47;6.60;;;;;;;19.36;82.53;94700.81;5037746;28;21004;-77
2022/06/25 02:15:01;;;;;;;11.57;6.47;;;;;;;19.37;82.69;94702.44;5072824;28;20489;-77
2022/06/25 02:17:28;;;;;;;7.00;6.30;;;;;;;19.37;82.56;94699.78;5072804;28;20437;-77
2022/06/25 02:19:55;;;;;;;6.37;5.87;;;;;;;19.41;82.50;94709.91;5072844;28;20448;-77
2022/06/25 02:22:22;;;;;;;12.20;6.00;;;;;;;19.40;82.36;94710.91;5072698;28;20445;-77
2022/06/25 02:24:49;;;;;;;8.37;7.47;;;;;;;19.43;82.58;94702.53;5073095;28;20449;-77
2022/06/25 02:27:16;;;;;;;6.67;5.93;;;;;;;19.26;81.85;94698.47;5072551;28;20467;-77
2022/06/25 02:29:44;;;;;;;6.23;5.63;;;;;;;19.20;81.59;94699.22;5072609;28;20812;-77
2022/06/25 02:32:11;;;;;;;7.30;6.60;;;;;;;19.11;82.02;94697.69;5072840;28;20471;-77
2022/06/25 02:34:37;;;;;;;6.00;5.60;;;;;;;19.13;82.13;94701.81;5053786;28;20477;-77
2022/06/25 02:37:05;;;;;;;10.83;6.13;;;;;;;19.15;82.25;94698.97;5072416;28;20440;-77
2022/06/25 02:39:32;;;;;;;6.47;5.87;;;;;;;19.15;82.50;94710.41;5072731;28;20498;-77
2022/06/25 02:41:58;;;;;;;6.33;5.80;;;;;;;19.16;82.33;94704.09;5072515;28;20437;-77
2022/06/25 02:44:25;;;;;;;6.37;5.77;;;;;;;19.19;81.93;94717.00;5072603;28;20445;-77
2022/06/25 02:46:54;;;;;;;10.13;6.90;;;;;;;19.17;81.86;94721.69;5072306;28;20437;-77
2022/06/25 02:49:20;;;;;;;7.40;6.70;;;;;;;19.21;81.88;94723.97;5072054;28;20449;-77
2022/06/25 02:51:47;;;;;;;6.83;5.90;;;;;;;19.29;81.84;94739.81;5072365;28;20476;-77
2022/06/25 02:54:14;;;;;;;6.67;6.17;;;;;;;19.25;81.97;94731.41;5072361;28;20524;-77
2022/06/25 02:59:34;;;;;;;5.80;5.27;;;;;;;19.30;81.66;94729.00;5010579;28;20794;-78
2022/06/25 03:02:02;;;;;;;6.10;5.33;;;;;;;19.33;81.75;94720.63;5010018;28;20481;-77
2022/06/25 03:04:29;;;;;;;7.17;6.20;;;;;;;19.36;81.57;94712.28;5010530;28;20440;-77
2022/06/25 03:06:56;;;;;;;8.00;5.87;;;;;;;19.70;83.80;94719.63;5010386;28;20458;-78
2022/06/25 03:09:23;;;;;;;6.80;5.67;;;;;;;20.06;82.46;94718.72;5010035;28;20459;-77
2022/06/25 03:11:50;;;;;;;6.90;6.30;;;;;;;20.35;80.11;94715.88;5010299;28;20451;-81
2022/06/25 03:14:17;;;;;;;8.80;5.67;;;;;;;20.64;78.92;94722.88;5009735;28;20934;-78
2022/06/25 03:16:45;;;;;;;7.17;6.47;;;;;;;20.95;77.56;94719.75;5011122;28;21042;-78
2022/06/25 03:19:13;;;;;;;8.50;6.07;;;;;;;21.18;74.76;94719.47;4962385;28;20512;-76
2022/06/25 03:21:40;;;;;;;6.73;6.17;;;;;;;21.16;74.22;94731.34;5010849;28;20443;-77
2022/06/25 03:24:07;;;;;;;6.43;6.00;;;;;;;21.06;74.24;94723.69;5010751;28;20462;-76
2022/06/25 03:26:34;;;;;;;5.97;5.10;;;;;;;20.96;74.47;94725.91;5010727;28;21181;-77
2022/06/25 03:29:02;;;;;;;9.33;5.83;;;;;;;20.89;74.45;94719.72;4962032;28;20443;-76
2022/06/25 03:31:29;;;;;;;8.40;5.77;;;;;;;20.86;74.79;94725.47;5010893;28;20643;-77
2022/06/25 03:33:56;;;;;;;6.50;5.97;;;;;;;20.85;75.28;94729.97;5010986;28;20459;-77
2022/06/25 03:36:24;;;;;;;6.23;5.73;;;;;;;20.81;74.90;94726.03;5047186;28;20477;-77
2022/06/25 03:38:51;;;;;;;7.13;5.63;;;;;;;20.79;74.85;94719.25;5072483;28;20445;-78
2022/06/25 03:41:37;;;;;;;6.33;5.73;;;;;;;20.74;75.35;94706.50;5072576;28;20444;-77
2022/06/25 03:44:05;;;;;;;5.77;5.30;;;;;;;20.68;75.84;94709.97;5072660;28;20451;-77
2022/06/25 03:46:32;;;;;;;7.60;6.83;;;;;;;20.63;77.70;94705.22;5072725;28;21035;-78
2022/06/25 03:49:00;;;;;;;7.53;6.93;;;;;;;20.68;78.88;94708.13;5072797;28;20494;-78
2022/06/25 03:51:29;;;;;;;8.07;7.00;;;;;;;20.69;79.15;94714.28;5072190;28;20800;-78
2022/06/25 03:53:56;;;;;;;9.20;7.67;;;;;;;20.59;79.61;94703.16;5072468;28;20450;-78
2022/06/25 03:56:23;;;;;;;8.27;7.53;;;;;;;20.58;79.65;94709.50;5072404;28;20481;-77
2022/06/25 03:58:51;;;;;;;12.43;7.17;;;;;;;20.55;80.88;94709.91;5037313;28;20437;-78
2022/06/25 04:01:18;;;;;;;7.17;6.47;;;;;;;20.59;79.91;94708.50;5072650;28;20447;-78
2022/06/25 04:03:45;;;;;;;7.10;6.50;;;;;;;20.62;79.82;94713.41;5076214;28;20452;-78
2022/06/25 04:06:12;;;;;;;6.37;5.87;;;;;;;20.58;79.49;94712.16;5076514;28;20437;-78
2022/06/25 04:08:40;;;;;;;6.83;6.00;;;;;;;20.50;78.58;94707.78;5076082;28;20488;-78
2022/06/25 04:11:07;;;;;;;12.13;6.97;;;;;;;20.43;78.38;94701.59;5075555;28;20445;-77
2022/06/25 04:13:34;;;;;;;10.07;6.30;;;;;;;20.38;78.69;94696.84;5075694;28;20449;-77
2022/06/25 04:16:01;;;;;;;7.50;6.80;;;;;;;20.37;78.76;94705.03;5075688;28;20485;-77
2022/06/25 04:18:28;;;;;;;11.33;5.43;;;;;;;20.40;78.91;94713.47;5075799;28;20442;-77
2022/06/25 04:20:54;;;;;;;9.30;6.27;;;;;;;20.41;79.94;94716.97;5075587;28;20453;-77
2022/06/25 04:23:21;;;;;;;6.50;5.90;;;;;;;20.41;79.73;94727.63;5075451;28;20441;-77
2022/06/25 04:25:49;;;;;;;460.50;269.70;;;;;;;20.51;81.72;94721.94;5075988;28;20442;-80
2022/06/25 04:31:00;;;;;;;13.73;10.50;;;;;;;20.95;80.03;94722.44;5075960;28;20426;-80
2022/06/25 04:33:27;;;;;;;13.73;9.90;;;;;;;20.98;80.42;94724.69;5076248;28;20448;-82
2022/06/25 04:35:54;;;;;;;13.00;8.90;;;;;;;20.86;82.08;94730.81;5075932;28;20997;-79
2022/06/25 04:38:21;;;;;;;11.40;9.43;;;;;;;20.68;83.58;94733.97;5075510;28;20989;-79
2022/06/25 04:40:50;;;;;;;10.40;9.40;;;;;;;20.51;84.95;94721.94;5075477;28;20475;-78
2022/06/25 04:43:17;;;;;;;10.40;9.37;;;;;;;20.43;84.58;94730.94;5075534;28;20449;-77
2022/06/25 04:45:43;;;;;;;11.60;10.60;;;;;;;20.23;85.97;94717.41;5075596;28;20441;-78
2022/06/25 04:48:10;;;;;;;10.97;9.97;;;;;;;20.01;87.19;94727.31;5075432;28;20437;-77
2022/06/25 04:50:37;;;;;;;12.50;11.40;;;;;;;19.82;89.12;94725.28;5075008;28;20433;-77
2022/06/25 04:53:07;;;;;;;11.50;10.40;;;;;;;19.84;89.68;94733.06;5075187;28;20877;-77
2022/06/25 04:55:34;;;;;;;13.13;10.67;;;;;;;19.88;90.62;94731.66;5075324;28;21018;-77
2022/06/25 04:58:02;;;;;;;13.90;10.20;;;;;;;19.95;90.34;94735.22;5074825;28;20453;-77
2022/06/25 05:00:29;;;;;;;16.23;10.67;;;;;;;20.04;90.41;94737.56;5059193;28;20476;-77
2022/06/25 05:02:56;;;;;;;12.67;11.37;;;;;;;20.16;89.17;94732.53;5066739;28;20444;-76
2022/06/25 05:05:23;;;;;;;17.13;10.70;;;;;;;20.29;89.12;94729.97;5078583;28;20448;-77
2022/06/25 05:07:50;;;;;;;12.10;9.50;;;;;;;20.39;88.54;94730.47;5074483;28;20457;-77
2022/06/25 05:10:17;;;;;;;10.10;9.10;;;;;;;20.46;87.69;94740.38;5074712;28;20933;-78
2022/06/25 05:15:29;;;;;;;16.03;10.23;;;;;;;20.61;86.59;94754.44;5074520;28;20479;-78
2022/06/25 05:17:56;;;;;;;13.57;9.83;;;;;;;20.69;86.12;94756.94;5074670;28;20830;-78
2022/06/25 05:20:23;;;;;;;11.07;9.87;;;;;;;20.79;86.02;94749.41;5060275;28;20453;-77
2022/06/25 05:22:50;;;;;;;16.10;10.00;;;;;;;20.91;85.90;94750.53;5074625;28;20448;-79
2022/06/25 05:25:18;;;;;;;11.40;9.90;;;;;;;21.21;85.42;94750.25;5075102;28;20445;-77
2022/06/25 05:27:45;;;;;;;10.90;9.80;;;;;;;21.50;82.98;94766.00;5074710;28;20511;-78
2022/06/25 05:30:12;;;;;;;10.10;9.10;;;;;;;21.79;82.54;94764.88;5073954;28;20464;-79
2022/06/25 05:32:40;;;;;;;12.27;10.43;;;;;;;21.95;80.32;94756.44;5074830;28;20465;-82
2022/06/25 05:35:08;;;;;;;10.23;8.90;;;;;;;22.12;79.90;94758.78;5074569;28;20437;-80
2022/06/25 05:37:35;;;;;;;9.33;8.40;;;;;;;21.88;80.28;94760.16;5074568;28;20457;-80
2022/06/25 05:40:02;;;;;;;10.10;8.87;;;;;;;22.21;80.42;94762.88;5081392;28;20465;-80
2022/06/25 05:42:28;;;;;;;9.97;9.17;;;;;;;22.27;79.00;94759.44;5074523;28;20437;-80
2022/06/25 05:44:55;;;;;;;11.20;9.63;;;;;;;22.39;78.54;94759.63;5073743;28;20965;-80
2022/06/25 05:47:22;;;;;;;13.33;10.20;;;;;;;22.55;79.08;94754.69;5054693;28;20446;-80
2022/06/25 05:49:50;;;;;;;9.30;7.80;;;;;;;22.83;78.66;94767.81;5073134;28;20453;-80
2022/06/25 05:52:17;;;;;;;14.13;8.93;;;;;;;23.02;77.30;94766.16;5073191;28;20996;-80
2022/06/25 05:54:44;;;;;;;11.23;9.27;;;;;;;23.01;75.73;94772.53;5073126;28;20464;-80
2022/06/25 05:57:11;;;;;;;13.33;9.83;;;;;;;23.11;75.54;94774.78;5073098;28;20489;-79
2022/06/25 05:59:38;;;;;;;9.50;8.33;;;;;;;23.31;74.55;94775.53;5073078;28;20947;-80
2022/06/25 06:02:05;;;;;;;9.60;8.67;;;;;;;23.64;73.24;94769.25;5072979;28;20444;-80
2022/06/25 06:04:32;;;;;;;8.63;7.90;;;;;;;23.83;73.51;94770.19;5073196;28;20456;-80
2022/06/25 06:07:00;;;;;;;9.00;8.30;;;;;;;24.02;71.88;94774.63;5073000;28;20449;-82
2022/06/25 06:09:28;;;;;;;9.60;8.70;;;;;;;24.22;70.88;94777.16;5072890;28;20960;-82
2022/06/25 06:11:55;;;;;;;11.83;8.47;;;;;;;24.15;70.22;94774.53;5037886;28;20868;-80
2022/06/25 06:14:22;;;;;;;9.60;8.60;;;;;;;24.61;70.65;94771.56;5073154;28;20437;-80
2022/06/25 06:16:49;;;;;;;8.30;7.50;;;;;;;25.04;69.45;94775.31;5072492;28;20861;-79
2022/06/25 06:19:16;;;;;;;8.97;6.80;;;;;;;25.32;66.01;94778.31;5072724;28;20843;-80
2022/06/25 06:21:43;;;;;;;10.60;8.50;;;;;;;25.62;66.03;94783.75;5072767;28;20445;-80
2022/06/25 06:24:11;;;;;;;8.47;7.70;;;;;;;26.04;64.74;94781.19;5071941;28;20454;-80
2022/06/25 06:26:38;;;;;;;8.67;7.87;;;;;;;26.32;62.45;94775.19;5072208;28;20456;-80
2022/06/25 06:29:05;;;;;;;8.20;7.33;;;;;;;26.61;60.90;94781.59;5072536;28;20445;-80
2022/06/25 06:31:32;;;;;;;8.27;7.33;;;;;;;26.92;59.63;94775.06;5072850;28;20457;-80
2022/06/25 06:33:59;;;;;;;9.10;7.30;;;;;;;27.14;59.91;94760.78;5072279;28;20515;-80
2022/06/25 06:36:26;;;;;;;7.03;6.53;;;;;;;27.45;58.70;94758.72;5072465;28;20504;-80
2022/06/25 06:38:53;;;;;;;11.67;6.07;;;;;;;27.83;56.83;94762.78;5072279;28;20444;-80
2022/06/25 06:41:21;;;;;;;8.53;7.20;;;;;;;27.97;56.32;94766.81;5053893;28;20446;-80
2022/06/25 06:43:48;;;;;;;9.07;7.07;;;;;;;28.24;55.55;94764.34;5072336;28;20492;-80
2022/06/25 06:46:15;;;;;;;7.90;7.20;;;;;;;28.00;54.70;94763.63;5072290;28;20447;-80
2022/06/25 06:48:42;;;;;;;9.07;6.40;;;;;;;28.09;53.41;94756.81;5072263;28;20449;-80
2022/06/25 06:51:09;;;;;;;7.10;6.43;;;;;;;28.25;53.80;94757.94;5071942;28;20457;-80
2022/06/25 06:53:36;;;;;;;8.30;7.57;;;;;;;28.16;54.88;94753.97;5072264;28;20946;-80
2022/06/25 06:56:04;;;;;;;6.97;6.37;;;;;;;28.44;55.62;94750.44;5072229;28;20481;-80
2022/06/25 06:58:33;;;;;;;10.23;7.00;;;;;;;28.33;55.53;94747.53;5036609;28;20446;-80
2022/06/25 07:01:00;;;;;;;15.37;8.10;;;;;;;28.23;54.68;94749.22;5073192;28;20472;-79
2022/06/25 07:03:28;;;;;;;8.50;7.67;;;;;;;28.04;54.94;94751.31;5073405;28;20787;-80
2022/06/25 07:05:55;;;;;;;9.13;7.57;;;;;;;27.94;55.55;94753.81;5073311;28;20491;-81
2022/06/25 07:08:22;;;;;;;7.83;6.77;;;;;;;28.00;54.57;94747.44;5073153;28;20460;-80
2022/06/25 07:10:49;;;;;;;7.93;7.33;;;;;;;28.01;54.03;94744.50;5072741;28;20445;-80
2022/06/25 07:13:16;;;;;;;10.27;7.20;;;;;;;28.18;54.85;94747.25;5073260;28;20452;-79
2022/06/25 07:15:45;;;;;;;10.83;7.30;;;;;;;28.42;53.54;94739.88;5073122;28;20544;-80
2022/06/25 07:18:12;;;;;;;7.93;7.23;;;;;;;28.77;53.12;94739.63;5072054;28;20437;-81
2022/06/25 07:20:39;;;;;;;8.00;7.30;;;;;;;29.14;52.47;94747.22;5073178;28;20453;-80
2022/06/25 07:23:06;;;;;;;6.87;6.20;;;;;;;29.16;52.30;94748.59;5073201;28;20447;-80
2022/06/25 07:25:33;;;;;;;7.40;6.70;;;;;;;29.03;52.14;94743.56;5073382;28;20450;-80
2022/06/25 07:28:00;;;;;;;7.93;7.33;;;;;;;28.79;51.18;94737.50;5072529;28;20457;-80
2022/06/25 07:30:27;;;;;;;8.03;6.23;;;;;;;28.92;53.28;94739.91;5073005;28;20445;-80
2022/06/25 07:32:55;;;;;;;7.23;6.60;;;;;;;29.08;52.13;94742.81;5019944;28;20451;-80
2022/06/25 07:35:22;;;;;;;7.37;6.67;;;;;;;29.24;52.01;94741.97;5016564;28;20442;-80
2022/06/25 07:37:49;;;;;;;7.57;6.80;;;;;;;29.21;49.20;94750.59;5055570;28;20514;-80
2022/06/25 07:40:16;;;;;;;7.20;6.60;;;;;;;28.99;50.86;94748.66;5055270;28;20948;-79
2022/06/25 07:42:42;;;;;;;6.60;5.77;;;;;;;29.12;48.95;94752.06;5036978;28;20836;-80
2022/06/25 07:45:11;;;;;;;6.97;6.30;;;;;;;29.04;52.06;94753.31;5055139;28;20446;-80
2022/06/25 07:47:38;;;;;;;6.70;6.20;;;;;;;28.63;48.21;94762.66;5055143;28;20571;-80
2022/06/25 07:52:53;;;;;;;9.27;6.40;;;;;;;28.56;49.53;94757.38;5055184;28;20465;-80
2022/06/25 07:55:19;;;;;;;6.30;5.80;;;;;;;28.72;47.46;94755.75;5055114;28;20446;-80
2022/06/25 07:57:46;;;;;;;6.83;6.20;;;;;;;28.48;48.90;94747.00;5054813;28;20481;-80
2022/06/25 08:00:14;;;;;;;7.43;6.73;;;;;;;28.71;49.46;94756.00;5055199;28;20445;-80
2022/06/25 08:02:41;;;;;;;8.37;6.40;;;;;;;28.99;52.00;94742.44;5055453;28;20816;-80
2022/06/25 08:05:09;;;;;;;8.47;6.90;;;;;;;29.19;49.80;94747.28;5054934;28;20451;-80
2022/06/25 08:07:36;;;;;;;12.40;7.00;;;;;;;29.39;50.76;94746.75;5055476;28;20465;-80
2022/06/25 08:10:04;;;;;;;10.43;6.80;;;;;;;28.97;53.00;94752.66;5055427;28;20436;-80
2022/06/25 08:12:31;;;;;;;10.00;8.10;;;;;;;28.97;52.11;94750.78;5056239;28;20932;-80
2022/06/25 08:14:58;;;;;;;10.10;7.17;;;;;;;28.49;52.08;94747.81;5056161;28;20925;-80
2022/06/25 08:17:25;;;;;;;9.37;7.93;;;;;;;28.35;52.77;94741.94;5056841;28;20481;-80
2022/06/25 08:19:52;;;;;;;7.80;7.00;;;;;;;28.44;53.34;94751.25;5076091;28;20449;-80
2022/06/25 08:22:20;;;;;;;7.87;7.07;;;;;;;28.31;53.47;94743.44;5076042;28;20460;-80
2022/06/25 08:24:47;;;;;;;8.80;7.77;;;;;;;28.28;53.39;94744.75;5075816;28;20814;-80
2022/06/25 08:27:14;;;;;;;16.70;7.23;;;;;;;28.52;54.46;94733.81;5075058;28;20792;-80
2022/06/25 08:29:41;;;;;;;9.80;7.60;;;;;;;28.73;51.34;94743.06;5076406;28;20453;-80
2022/06/25 08:32:08;;;;;;;10.67;7.40;;;;;;;28.91;52.19;94738.28;5075950;28;20440;-80
2022/06/25 08:34:35;;;;;;;13.03;8.73;;;;;;;28.99;50.45;94737.84;5075900;28;20454;-80
2022/06/25 08:37:02;;;;;;;10.53;8.60;;;;;;;28.85;50.81;94741.94;5075462;28;21012;-80
2022/06/25 08:39:30;;;;;;;9.17;8.27;;;;;;;29.02;52.37;94733.00;5057057;28;20454;-80
2022/06/25 08:42:00;;;;;;;9.00;8.00;;;;;;;29.13;51.37;94734.78;5040470;28;20528;-80
2022/06/25 08:44:27;;;;;;;9.37;8.27;;;;;;;29.28;52.93;94740.41;5074524;28;20446;-80
2022/06/25 08:46:56;;;;;;;14.10;8.80;;;;;;;29.30;52.31;94743.69;5039158;28;20452;-80
2022/06/25 08:49:24;;;;;;;8.70;7.90;;;;;;;29.38;51.75;94743.22;5037779;28;20489;-80
2022/06/25 08:51:54;;;;;;;11.63;7.43;;;;;;;29.42;50.94;94738.97;5073661;28;20480;-80
2022/06/25 08:54:21;;;;;;;8.40;7.50;;;;;;;29.44;52.26;94744.13;5074166;28;20449;-80
2022/06/25 08:56:49;;;;;;;10.97;8.63;;;;;;;29.51;52.50;94739.38;5074286;28;20481;-81
2022/06/25 08:59:17;;;;;;;10.00;9.10;;;;;;;29.57;51.43;94743.78;5038752;28;20453;-80
2022/06/25 09:01:44;;;;;;;17.60;9.63;;;;;;;29.60;50.21;94746.81;5074358;28;20474;-80
2022/06/25 09:04:11;;;;;;;11.97;8.87;;;;;;;29.64;51.19;94740.88;5037733;28;20442;-80
2022/06/25 09:06:38;;;;;;;12.33;8.10;;;;;;;29.79;51.10;94743.78;5073695;28;20442;-81
2022/06/25 09:09:12;;;;;;;10.63;9.53;;;;;;;29.95;49.49;94744.75;5038212;28;20439;-80
2022/06/25 09:11:55;;;;;;;11.70;9.00;;;;;;;30.12;50.21;94751.75;5074895;28;20447;-80
2022/06/25 09:14:24;;;;;;;12.73;9.03;;;;;;;30.00;50.79;94751.03;5074923;28;20458;-80
2022/06/25 09:16:59;;;;;;;15.77;8.87;;;;;;;30.07;52.56;94751.72;5074713;28;20857;-82
2022/06/25 09:19:34;;;;;;;17.73;9.13;;;;;;;30.20;49.94;94751.28;5074079;28;20450;-81
2022/06/25 09:22:03;;;;;;;10.80;9.60;;;;;;;30.11;49.53;94747.41;5075042;28;20454;-81
2022/06/25 09:24:48;;;;;;;15.60;10.17;;;;;;;30.08;51.15;94760.66;5074706;28;20456;-82
2022/06/25 09:27:20;;;;;;;13.57;10.27;;;;;;;30.00;50.22;94748.34;5075167;28;20467;-79
2022/06/25 09:29:49;;;;;;;13.63;9.07;;;;;;;30.03;51.95;94749.75;5075243;28;20506;-79
2022/06/25 09:32:17;;;;;;;18.20;10.00;;;;;;;29.77;50.37;94752.13;5075215;28;20463;-79
2022/06/25 09:34:44;;;;;;;11.67;10.57;;;;;;;29.29;50.79;94744.75;5074591;28;20512;-78
2022/06/25 09:37:19;;;;;;;12.87;9.50;;;;;;;29.47;52.55;94735.53;5074886;28;20532;-78
2022/06/25 09:39:47;;;;;;;14.77;9.60;;;;;;;29.55;51.65;94738.63;5074461;28;20441;-79
2022/06/25 09:42:23;;;;;;;12.23;9.80;;;;;;;29.65;52.33;94743.34;5074203;28;20533;-79
2022/06/25 09:44:59;;;;;;;12.87;9.73;;;;;;;29.77;51.60;94740.50;5074279;28;20446;-79
2022/06/25 09:47:27;;;;;;;17.40;10.00;;;;;;;29.80;52.26;94742.72;5074228;28;20961;-79
2022/06/25 09:50:04;;;;;;;13.67;9.90;;;;;;;29.76;51.25;94733.44;5055836;28;20443;-79
2022/06/25 09:52:31;;;;;;;14.00;9.47;;;;;;;29.65;51.19;94723.59;5074802;28;20574;-79
2022/06/25 09:54:58;;;;;;;12.53;10.50;;;;;;;29.44;51.19;94720.63;5073427;28;20450;-79
2022/06/25 09:57:27;;;;;;;17.30;10.50;;;;;;;29.44;51.18;94720.63;5073942;28;20491;-79
2022/06/25 09:59:56;;;;;;;14.63;10.00;;;;;;;29.57;51.73;94730.25;5073363;28;20446;-79
2022/06/25 10:02:27;;;;;;;15.90;10.50;;;;;;;29.34;52.04;94723.19;5074530;28;20503;-79
2022/06/25 10:04:58;;;;;;;12.67;9.33;;;;;;;29.41;52.42;94713.00;5074174;28;20502;-78
2022/06/25 10:07:59;;;;;;;14.70;10.83;;;;;;;29.53;50.87;94719.13;5074368;28;20514;-79
2022/06/25 10:10:18;;;;;;;12.73;9.50;;;;;;;29.61;53.11;94715.16;5074033;28;20438;-79
2022/06/25 10:12:48;;;;;;;15.07;10.93;;;;;;;29.59;50.54;94718.13;5074073;28;20508;-79
2022/06/25 10:15:17;;;;;;;13.10;10.10;;;;;;;29.65;50.46;94716.28;5038500;28;20922;-79
2022/06/25 10:17:46;;;;;;;12.23;8.33;;;;;;;29.78;49.89;94721.31;5072547;28;20537;-79
2022/06/25 10:20:13;;;;;;;20.10;9.70;;;;;;;29.80;50.48;94724.59;5074104;28;20450;-79
2022/06/25 10:22:41;;;;;;;16.07;9.63;;;;;;;29.75;49.08;94723.69;5074225;28;20480;-81
2022/06/25 10:25:12;;;;;;;12.93;8.87;;;;;;;29.49;49.36;94715.31;5073420;28;20541;-79
2022/06/25 10:27:40;;;;;;;12.87;8.57;;;;;;;29.55;48.41;94716.19;5073375;28;20943;-79
2022/06/25 10:30:09;;;;;;;16.03;8.93;;;;;;;29.57;49.39;94708.63;5072905;28;20450;-79
2022/06/25 10:32:44;;;;;;;11.93;8.63;;;;;;;29.67;48.88;94708.75;5072123;28;20446;-80
2022/06/25 10:35:28;;;;;;;13.77;8.47;;;;;;;29.80;50.10;94702.13;5037888;28;20995;-79
2022/06/25 10:38:04;;;;;;;11.90;9.13;;;;;;;29.89;49.58;94689.78;5073470;28;20485;-79
2022/06/25 10:40:32;;;;;;;14.63;10.20;;;;;;;30.00;48.94;94696.91;5073273;28;20453;-79
2022/06/25 10:43:02;;;;;;;18.90;10.80;;;;;;;30.12;47.71;94694.91;5074102;28;20445;-79
2022/06/25 10:45:54;;;;;;;13.23;9.07;;;;;;;30.30;48.62;94692.88;5073302;28;20469;-79
2022/06/25 10:48:22;;;;;;;17.50;9.50;;;;;;;30.32;47.58;94682.63;5073785;28;20454;-79
2022/06/25 10:50:53;;;;;;;13.93;9.33;;;;;;;30.31;48.25;94683.69;5073224;28;20458;-79
2022/06/25 10:53:24;;;;;;;14.63;9.00;;;;;;;30.33;48.82;94673.41;5073711;28;20491;-79
2022/06/25 10:56:19;;;;;;;18.43;9.63;;;;;;;30.36;48.26;94675.59;5073688;28;20798;-80
2022/06/25 10:58:50;;;;;;;13.50;9.37;;;;;;;30.30;47.92;94671.22;5073005;28;20814;-79
2022/06/25 11:01:33;;;;;;;15.33;9.90;;;;;;;30.31;47.49;94676.38;5073353;28;20451;-80
2022/06/25 11:04:06;;;;;;;13.07;9.63;;;;;;;30.30;48.06;94672.03;5073075;28;20453;-79
2022/06/25 11:06:36;;;;;;;13.13;9.20;;;;;;;30.27;47.02;94682.56;5073682;28;20919;-79
2022/06/25 11:09:14;;;;;;;17.77;8.87;;;;;;;30.38;49.68;94674.31;5074297;28;20443;-79
2022/06/25 11:11:44;;;;;;;14.50;9.40;;;;;;;30.46;48.10;94673.00;5075666;28;20444;-79
2022/06/25 11:14:19;;;;;;;14.67;9.80;;;;;;;30.61;49.39;94675.84;5076970;28;20454;-79
2022/06/25 11:16:48;;;;;;;12.87;10.37;;;;;;;30.55;49.05;94668.72;5076935;28;20441;-79
2022/06/25 11:19:15;;;;;;;17.40;9.93;;;;;;;30.12;50.30;94667.03;5042589;28;20438;-80
2022/06/25 11:21:45;;;;;;;11.83;10.47;;;;;;;30.03;50.82;94655.84;5077281;28;20440;-79
2022/06/25 11:24:17;;;;;;;11.10;9.90;;;;;;;29.94;51.41;94651.13;5077087;28;20487;-79
2022/06/25 11:29:32;;;;;;;12.67;10.40;;;;;;;29.90;50.97;94645.41;5077000;28;20426;-79
2022/06/25 11:32:00;;;;;;;11.90;10.30;;;;;;;29.88;51.59;94642.16;5076861;28;20534;-79
2022/06/25 11:34:29;;;;;;;16.50;10.10;;;;;;;29.77;53.23;94635.81;5076826;28;20824;-78
2022/06/25 11:37:03;;;;;;;11.97;9.70;;;;;;;29.59;51.21;94637.00;5076592;28;20460;-79
2022/06/25 11:39:31;;;;;;;17.17;11.77;;;;;;;29.54;50.93;94628.81;5076972;28;20473;-79
2022/06/25 11:41:58;;;;;;;22.10;10.00;;;;;;;29.63;51.65;94633.78;5077356;28;20447;-79
2022/06/25 11:44:25;;;;;;;17.70;10.10;;;;;;;29.82;53.31;94625.06;5077025;28;20447;-79
2022/06/25 11:46:53;;;;;;;11.07;9.80;;;;;;;29.97;49.95;94627.06;5076913;28;20450;-79
2022/06/25 11:49:22;;;;;;;16.70;8.70;;;;;;;30.06;49.48;94622.03;5077151;28;20509;-79
2022/06/25 11:51:51;;;;;;;18.30;10.93;;;;;;;30.06;53.29;94625.53;5076636;28;20852;-79